Hoagland, Indiana
Current Conditions -  °F | °C
As of 6:54 AM on Monday 24 Nov 2014 (Local Time) from KFWA Reporting Station
Moderate Rain Moderate Rain  
Wind Chill: 55°   Ceiling: 6000
Heat Index: 55°   Visibility: 9mi
Dew Point: 52°   Wind: 22mph
Humidity: 89%   Direction: 190°S
Pressure: 29.16"   Gusts: 30mph
Location:  40.95°N, 84.99°W
Report Text: KFWA 241154Z 19019G26KT 9SM RA BKN060 OVC070 13/11 A2916 RMK AO2 PK WND 19026/1145 SLP873 P0009 60020 70169 T01280111 10133 20122 58009
Loading
Personal Weather Stations






























Interactive Weather Map New forecast layout! Learn more

10-Day Weather Forecast

Advertisements
Track Severe Weather on mobile